createdAt,value
2019-04-30T00:02:05.560Z,1.40
2019-04-30T00:04:57.681Z,1.50
2019-04-30T00:07:43.564Z,1.50
2019-04-30T00:10:39.614Z,1.40
2019-04-30T00:13:20.851Z,1.40
2019-04-30T00:16:05.603Z,1.40
2019-04-30T00:18:58.239Z,1.40
2019-04-30T00:21:40.050Z,1.40
2019-04-30T00:24:26.430Z,1.40
2019-04-30T00:27:21.090Z,1.40
2019-04-30T00:30:09.004Z,1.40
2019-04-30T00:32:55.721Z,1.40
2019-04-30T00:35:41.819Z,1.40
2019-04-30T00:38:29.555Z,1.40
2019-04-30T00:41:15.983Z,1.40
2019-04-30T00:44:02.346Z,1.40
2019-04-30T00:46:49.794Z,1.40
2019-04-30T00:49:36.397Z,1.50
2019-04-30T00:52:37.371Z,1.50
2019-04-30T00:55:29.149Z,1.50
2019-04-30T00:58:28.800Z,1.50
2019-04-30T01:01:20.344Z,1.50
2019-04-30T01:04:23.896Z,1.50
2019-04-30T01:07:09.033Z,1.50
2019-04-30T01:09:56.909Z,1.50
2019-04-30T01:12:47.226Z,1.50
2019-04-30T01:15:31.414Z,1.60
2019-04-30T01:18:19.286Z,1.50
2019-04-30T01:21:09.767Z,1.50
2019-04-30T01:23:59.124Z,1.60
2019-04-30T01:26:48.614Z,1.50
2019-04-30T01:29:41.025Z,1.60
2019-04-30T01:32:26.126Z,1.50
2019-04-30T01:35:14.486Z,1.60
2019-04-30T01:38:04.077Z,1.60
2019-04-30T01:40:54.612Z,1.50
2019-04-30T01:43:41.704Z,1.50
2019-04-30T01:46:29.160Z,1.50
2019-04-30T01:49:19.964Z,1.50
2019-04-30T01:52:05.145Z,1.50
2019-04-30T01:54:53.660Z,1.50
2019-04-30T01:58:08.681Z,1.50
2019-04-30T02:00:59.377Z,1.50
2019-04-30T02:03:48.605Z,1.40
2019-04-30T02:06:35.171Z,1.40
2019-04-30T02:09:20.919Z,1.40
2019-04-30T02:12:06.784Z,1.40
2019-04-30T02:14:53.049Z,1.40
2019-04-30T02:17:39.585Z,1.40
2019-04-30T02:20:25.471Z,1.40
2019-04-30T02:23:17.127Z,1.50
2019-04-30T02:26:06.038Z,1.50
2019-04-30T02:28:52.836Z,1.40
2019-04-30T02:31:42.698Z,1.40
2019-04-30T02:34:44.238Z,1.40
2019-04-30T02:37:31.607Z,1.30
2019-04-30T02:40:20.198Z,1.30
2019-04-30T02:43:09.304Z,1.20
2019-04-30T02:45:56.228Z,1.20
2019-04-30T02:48:45.028Z,1.20
2019-04-30T02:51:33.013Z,1.10
2019-04-30T02:54:23.881Z,1.10
2019-04-30T02:57:12.265Z,1.10
2019-04-30T03:00:12.732Z,1.10
2019-04-30T03:03:00.176Z,1.10
2019-04-30T03:05:46.292Z,1.20
2019-04-30T03:08:32.601Z,1.20
2019-04-30T03:11:20.729Z,1.20
2019-04-30T03:14:06.835Z,1.20
2019-04-30T03:17:02.492Z,1.20
2019-04-30T03:19:56.845Z,1.20
2019-04-30T03:22:43.931Z,1.30
2019-04-30T03:25:34.659Z,1.30
2019-04-30T03:28:24.250Z,1.40
2019-04-30T03:31:12.685Z,1.50
2019-04-30T03:34:02.334Z,1.50
2019-04-30T03:36:51.934Z,1.60
2019-04-30T03:39:39.969Z,1.70
2019-04-30T03:42:29.534Z,1.70
2019-04-30T03:45:17.191Z,1.80
2019-04-30T03:48:11.087Z,2.00
2019-04-30T03:51:01.036Z,2.20
2019-04-30T03:53:49.573Z,2.40
2019-04-30T03:56:34.697Z,2.50
2019-04-30T03:59:21.068Z,2.60
2019-04-30T04:02:26.975Z,2.80
2019-04-30T04:05:32.530Z,2.90
2019-04-30T04:08:49.031Z,3.10
2019-04-30T04:11:39.635Z,3.30
2019-04-30T04:14:26.288Z,3.60
2019-04-30T04:17:12.472Z,3.80
2019-04-30T04:19:59.888Z,4.00
2019-04-30T04:22:46.263Z,4.20
2019-04-30T04:25:32.567Z,4.30
2019-04-30T04:28:20.260Z,4.50
2019-04-30T04:31:06.487Z,4.60
2019-04-30T04:33:52.888Z,4.60
2019-04-30T04:36:42.967Z,4.60
2019-04-30T04:39:29.763Z,4.70
2019-04-30T04:42:19.126Z,4.70
2019-04-30T04:45:06.320Z,4.80
2019-04-30T04:47:56.362Z,4.80
2019-04-30T04:50:45.306Z,4.90
2019-04-30T04:53:37.229Z,4.90
2019-04-30T04:56:23.706Z,5.00
2019-04-30T04:59:17.097Z,5.00
2019-04-30T05:02:22.782Z,5.10
2019-04-30T05:05:09.921Z,5.20
2019-04-30T05:07:59.618Z,5.30
2019-04-30T05:10:45.742Z,5.40
2019-04-30T05:13:34.646Z,5.60
2019-04-30T05:16:21.365Z,5.90
2019-04-30T05:19:08.922Z,6.00
2019-04-30T05:21:56.377Z,6.20
2019-04-30T05:24:45.128Z,6.40
2019-04-30T05:27:32.221Z,7.10
2019-04-30T05:30:24.005Z,7.70
2019-04-30T05:33:11.345Z,7.70
2019-04-30T05:36:00.421Z,8.00
2019-04-30T05:38:49.686Z,8.10
2019-04-30T05:41:38.603Z,8.40
2019-04-30T05:44:25.400Z,9.10
2019-04-30T05:47:15.659Z,9.50
2019-04-30T05:50:04.048Z,10.20
2019-04-30T05:52:49.880Z,10.70
2019-04-30T05:55:36.259Z,10.50
2019-04-30T05:58:22.271Z,10.70
2019-04-30T06:01:09.645Z,10.90
2019-04-30T06:03:55.895Z,11.20
2019-04-30T06:06:42.404Z,11.60
2019-04-30T06:09:59.658Z,12.00
2019-04-30T06:12:51.994Z,12.30
2019-04-30T06:16:12.060Z,12.60
2019-04-30T06:19:04.462Z,12.90
2019-04-30T06:21:51.873Z,13.20
2019-04-30T06:24:39.572Z,13.50
2019-04-30T06:27:40.391Z,13.80
2019-04-30T06:30:34.100Z,14.00
2019-04-30T06:33:20.248Z,14.20
2019-04-30T06:36:08.548Z,14.40
2019-04-30T06:38:54.856Z,14.40
2019-04-30T06:41:41.342Z,14.50
2019-04-30T06:44:37.242Z,14.60
2019-04-30T06:47:32.746Z,14.50
2019-04-30T06:50:15.284Z,14.40
2019-04-30T06:53:15.920Z,14.40
2019-04-30T06:56:08.799Z,14.50
2019-04-30T06:58:59.071Z,14.50
2019-04-30T07:01:48.896Z,14.60
2019-04-30T07:04:35.139Z,14.50
2019-04-30T07:07:36.289Z,14.50
2019-04-30T07:10:22.285Z,14.50
2019-04-30T07:13:18.808Z,14.40
2019-04-30T07:16:15.442Z,14.40
2019-04-30T07:19:05.878Z,14.40
2019-04-30T07:21:59.315Z,14.40
2019-04-30T07:24:49.870Z,14.40
2019-04-30T07:27:40.111Z,14.40
2019-04-30T07:30:30.846Z,14.50
2019-04-30T07:33:20.948Z,14.50
2019-04-30T07:36:10.202Z,14.60
2019-04-30T07:38:59.888Z,14.70
2019-04-30T07:41:46.257Z,14.80
2019-04-30T07:44:36.579Z,14.80
2019-04-30T07:47:22.067Z,14.90
2019-04-30T07:50:10.638Z,14.90
2019-04-30T07:53:05.859Z,15.00
2019-04-30T07:55:58.823Z,15.00
2019-04-30T07:58:50.514Z,15.00
2019-04-30T08:01:58.105Z,15.10
2019-04-30T08:05:06.318Z,15.10
2019-04-30T08:07:52.371Z,15.10
2019-04-30T08:10:39.417Z,15.10
2019-04-30T08:13:26.369Z,15.10
2019-04-30T08:16:12.668Z,15.10
2019-04-30T08:18:59.249Z,15.20
2019-04-30T08:21:45.519Z,15.20
2019-04-30T08:24:32.949Z,15.30
2019-04-30T08:27:19.700Z,15.30
2019-04-30T08:30:18.349Z,15.40
2019-04-30T08:32:54.296Z,15.60
2019-04-30T08:35:40.273Z,15.70
2019-04-30T08:38:26.576Z,15.90
2019-04-30T08:41:12.440Z,16.00
2019-04-30T08:43:59.742Z,16.10
2019-04-30T08:46:46.356Z,16.10
2019-04-30T08:49:33.041Z,16.20
2019-04-30T08:52:20.195Z,16.30
2019-04-30T08:55:14.156Z,16.30
2019-04-30T08:58:06.585Z,16.30
2019-04-30T09:00:42.316Z,16.50
2019-04-30T09:03:29.603Z,16.60
2019-04-30T09:06:20.836Z,16.60
2019-04-30T09:09:15.874Z,16.80
2019-04-30T09:12:01.716Z,17.10
2019-04-30T09:14:49.119Z,17.70
2019-04-30T09:17:35.447Z,18.30
2019-04-30T09:20:22.020Z,18.90
2019-04-30T09:23:09.560Z,19.00
2019-04-30T09:25:58.649Z,19.20
2019-04-30T09:28:45.347Z,19.40
2019-04-30T09:31:31.808Z,19.70
2019-04-30T09:34:20.897Z,20.10
2019-04-30T09:37:06.116Z,20.60
2019-04-30T09:39:52.404Z,21.10
2019-04-30T09:42:42.152Z,21.40
2019-04-30T09:45:28.646Z,21.70
2019-04-30T09:48:14.850Z,21.60
2019-04-30T09:54:00.506Z,19.40
2019-04-30T09:56:49.638Z,19.30
2019-04-30T09:59:41.955Z,19.20
2019-04-30T15:15:19.172Z,21.10
2019-04-30T15:18:09.236Z,21.40
2019-04-30T15:21:02.678Z,21.60
2019-04-30T15:24:13.198Z,20.70
2019-04-30T15:26:59.123Z,19.90
2019-04-30T15:29:45.623Z,19.50
2019-04-30T15:32:32.020Z,19.40
2019-04-30T15:35:19.724Z,19.30
2019-04-30T15:38:06.212Z,19.40
2019-04-30T15:40:53.804Z,19.40
2019-04-30T15:44:00.745Z,20.00
2019-04-30T15:46:47.822Z,20.20
2019-04-30T15:49:37.907Z,19.80
2019-04-30T15:52:30.717Z,19.60
2019-04-30T15:55:18.888Z,19.40
2019-04-30T15:58:18.253Z,19.50
2019-04-30T16:01:06.115Z,19.50
2019-04-30T16:03:54.103Z,20.20
2019-04-30T16:06:40.287Z,20.90
2019-04-30T16:09:32.289Z,20.50
2019-04-30T16:12:25.303Z,20.00
2019-04-30T16:15:11.611Z,20.00
2019-04-30T16:17:59.165Z,20.20
2019-04-30T16:20:45.196Z,20.20
2019-04-30T16:23:30.975Z,20.40
2019-04-30T16:26:17.441Z,20.40
2019-04-30T16:29:03.998Z,20.40
2019-04-30T16:31:50.172Z,20.50
2019-04-30T16:34:38.700Z,20.70
2019-04-30T16:37:24.618Z,20.80
2019-04-30T16:40:11.133Z,20.70
2019-04-30T16:42:57.280Z,20.40
2019-04-30T16:45:43.740Z,20.30
2019-04-30T16:48:29.979Z,19.90
2019-04-30T16:51:15.728Z,19.70
2019-04-30T16:54:02.119Z,19.80
2019-04-30T16:56:56.526Z,19.60
2019-04-30T16:59:40.062Z,19.40
2019-04-30T17:02:29.293Z,19.20
2019-04-30T17:05:33.927Z,18.50
2019-04-30T17:08:29.071Z,17.90
2019-04-30T17:11:38.664Z,17.10
2019-04-30T17:14:25.004Z,16.40
2019-04-30T17:17:11.468Z,15.80
2019-04-30T17:19:59.806Z,15.30
2019-04-30T17:22:45.728Z,14.90
2019-04-30T17:25:31.648Z,14.60
2019-04-30T17:28:18.840Z,14.30
2019-04-30T17:31:07.244Z,14.00
2019-04-30T17:33:53.895Z,13.60
2019-04-30T17:36:39.880Z,13.30
2019-04-30T17:39:26.443Z,13.10
2019-04-30T17:42:12.633Z,12.80
2019-04-30T17:45:01.502Z,12.60
2019-04-30T17:47:46.728Z,12.30
2019-04-30T17:50:34.999Z,12.10
2019-04-30T17:53:21.020Z,11.90
2019-04-30T17:56:07.301Z,11.70
2019-04-30T17:58:53.344Z,11.50
2019-04-30T18:01:41.008Z,11.30
2019-04-30T18:04:29.540Z,11.10
2019-04-30T18:07:15.480Z,11.00
2019-04-30T18:10:01.852Z,10.80
2019-04-30T18:12:48.212Z,10.60
2019-04-30T18:15:34.598Z,10.40
